Time,TemperatureF,DewpointF,PressureIn,WindDirection,WindDirectionDegrees,WindSpeedMPH,WindSpeedGustMPH,Humidity,HourlyPrecipIn,Conditions,Clouds,dailyrainin,SolarRadiationWatts/m^2,SoftwareType,DateUTC
2013-02-14 00:01:00,39.0,20.0,-100.00,North,0,0.0,0.0,47,-99.99,,,0.00,0.000000,,2013-02-14 07:01:00,
2013-02-14 00:11:00,39.0,20.0,-100.00,North,0,0.0,0.0,47,-99.99,,,0.00,0.000000,,2013-02-14 07:11:00,
2013-02-14 00:41:00,39.0,21.0,-100.00,WNW,284,4.0,9.0,49,-99.99,,,0.00,0.000000,,2013-02-14 07:41:00,
2013-02-14 00:52:00,39.0,21.0,-100.00,WNW,284,4.0,9.0,49,-99.99,,,0.00,0.000000,,2013-02-14 07:52:00,
2013-02-14 01:01:00,39.0,21.0,-100.00,WNW,284,4.0,9.0,49,-99.99,,,0.00,0.000000,,2013-02-14 08:01:00,
2013-02-14 01:11:00,39.0,21.0,-100.00,WNW,284,4.0,9.0,49,-99.99,,,0.00,0.000000,,2013-02-14 08:11:00,
2013-02-14 01:43:00,37.0,22.0,-100.00,WNW,301,2.0,6.0,55,-99.99,,,0.00,0.000000,,2013-02-14 08:43:00,
2013-02-14 01:52:00,37.0,22.0,-100.00,WNW,301,2.0,6.0,55,-99.99,,,0.00,0.000000,,2013-02-14 08:52:00,
2013-02-14 02:01:00,37.0,22.0,-100.00,WNW,301,2.0,6.0,55,-99.99,,,0.00,0.000000,,2013-02-14 09:01:00,
2013-02-14 02:11:00,37.0,22.0,-100.00,WNW,301,2.0,6.0,55,-99.99,,,0.00,0.000000,,2013-02-14 09:11:00,
2013-02-14 02:41:00,34.0,25.0,-100.00,NE,52,1.0,3.0,68,-99.99,,,0.00,0.000000,,2013-02-14 09:41:00,
2013-02-14 02:52:00,34.0,25.0,-100.00,NE,52,1.0,3.0,68,-99.99,,,0.00,0.000000,,2013-02-14 09:52:00,
2013-02-14 03:02:00,34.0,25.0,-100.00,NE,52,1.0,3.0,68,-99.99,,,0.00,0.000000,,2013-02-14 10:02:00,
2013-02-14 03:11:00,34.0,25.0,-100.00,NE,52,1.0,3.0,68,-99.99,,,0.00,0.000000,,2013-02-14 10:11:00,
2013-02-14 03:42:00,35.0,24.0,-100.00,West,275,2.0,6.0,63,-99.99,,,0.00,0.000000,,2013-02-14 10:42:00,
2013-02-14 03:52:00,35.0,24.0,-100.00,West,275,2.0,6.0,63,-99.99,,,0.00,0.000000,,2013-02-14 10:52:00,
2013-02-14 04:01:00,35.0,24.0,-100.00,West,275,2.0,6.0,63,-99.99,,,0.00,0.000000,,2013-02-14 11:01:00,
2013-02-14 04:11:00,35.0,24.0,-100.00,West,275,2.0,6.0,63,-99.99,,,0.00,0.000000,,2013-02-14 11:11:00,
2013-02-14 04:42:00,34.0,26.0,-100.00,SSE,157,4.0,7.0,73,-99.99,,,0.00,0.000000,,2013-02-14 11:42:00,
2013-02-14 04:52:00,34.0,26.0,-100.00,SSE,157,4.0,7.0,73,-99.99,,,0.00,0.000000,,2013-02-14 11:52:00,
2013-02-14 05:01:00,34.0,26.0,-100.00,SSE,157,4.0,7.0,73,-99.99,,,0.00,0.000000,,2013-02-14 12:01:00,
2013-02-14 05:11:00,34.0,26.0,-100.00,SSE,157,4.0,7.0,73,-99.99,,,0.00,0.000000,,2013-02-14 12:11:00,
2013-02-14 05:42:00,34.0,25.0,-100.00,SSE,163,3.0,7.0,68,-99.99,,,0.00,0.000000,,2013-02-14 12:42:00,
2013-02-14 05:53:00,34.0,25.0,-100.00,SSE,163,3.0,7.0,68,-99.99,,,0.00,0.000000,,2013-02-14 12:53:00,
2013-02-14 06:01:00,34.0,25.0,-100.00,SSE,163,3.0,7.0,68,-99.99,,,0.00,0.000000,,2013-02-14 13:01:00,
2013-02-14 06:11:00,34.0,25.0,-100.00,SSE,163,3.0,7.0,68,-99.99,,,0.00,0.000000,,2013-02-14 13:11:00,
2013-02-14 07:41:00,34.0,23.0,-100.00,SSE,159,2.0,5.0,65,-99.99,,,0.00,0.000000,,2013-02-14 14:41:00,
2013-02-14 07:52:00,34.0,23.0,-100.00,SSE,159,2.0,5.0,65,-99.99,,,0.00,0.000000,,2013-02-14 14:52:00,
2013-02-14 08:01:00,34.0,23.0,-100.00,SSE,159,2.0,5.0,65,-99.99,,,0.00,0.000000,,2013-02-14 15:01:00,
2013-02-14 08:11:00,34.0,23.0,-100.00,SSE,159,2.0,5.0,65,-99.99,,,0.00,0.000000,,2013-02-14 15:11:00,
2013-02-14 08:41:00,34.0,23.0,-100.00,ESE,118,2.0,3.0,63,-99.99,,,0.00,11.160000,,2013-02-14 15:41:00,
2013-02-14 08:52:00,34.0,23.0,-100.00,ESE,118,2.0,3.0,63,-99.99,,,0.00,11.160000,,2013-02-14 15:52:00,
2013-02-14 09:01:00,34.0,23.0,-100.00,ESE,118,2.0,3.0,63,-99.99,,,0.00,11.160000,,2013-02-14 16:01:00,
2013-02-14 09:11:00,34.0,23.0,-100.00,ESE,118,2.0,3.0,63,-99.99,,,0.00,11.160000,,2013-02-14 16:11:00,
2013-02-14 09:41:00,36.0,22.0,-100.00,ESE,119,3.0,6.0,57,-99.99,,,0.00,75.889999,,2013-02-14 16:41:00,
2013-02-14 09:52:00,36.0,22.0,-100.00,ESE,119,3.0,6.0,57,-99.99,,,0.00,75.889999,,2013-02-14 16:52:00,
2013-02-14 10:01:00,36.0,22.0,-100.00,ESE,119,3.0,6.0,57,-99.99,,,0.00,75.889999,,2013-02-14 17:01:00,
2013-02-14 10:11:00,36.0,22.0,-100.00,ESE,119,3.0,6.0,57,-99.99,,,0.00,75.889999,,2013-02-14 17:11:00,
2013-02-14 10:41:00,37.0,24.0,-100.00,SSE,149,2.0,3.0,57,-99.99,,,0.00,153.410004,,2013-02-14 17:41:00,
2013-02-14 10:52:00,37.0,24.0,-100.00,SSE,149,2.0,3.0,57,-99.99,,,0.00,153.410004,,2013-02-14 17:52:00,
2013-02-14 11:01:00,37.0,24.0,-100.00,SSE,149,2.0,3.0,57,-99.99,,,0.00,153.410004,,2013-02-14 18:01:00,
2013-02-14 11:11:00,37.0,24.0,-100.00,SSE,149,2.0,3.0,57,-99.99,,,0.00,153.410004,,2013-02-14 18:11:00,
2013-02-14 11:41:00,40.0,20.0,-100.00,NE,49,1.0,2.0,44,-99.99,,,0.00,203.729996,,2013-02-14 18:41:00,
2013-02-14 11:52:00,40.0,20.0,-100.00,NE,49,1.0,2.0,44,-99.99,,,0.00,203.729996,,2013-02-14 18:52:00,
2013-02-14 12:01:00,40.0,20.0,-100.00,NE,49,1.0,2.0,44,-99.99,,,0.00,203.729996,,2013-02-14 19:01:00,
2013-02-14 12:11:00,40.0,20.0,-100.00,NE,49,1.0,2.0,44,-99.99,,,0.00,203.729996,,2013-02-14 19:11:00,
2013-02-14 12:41:00,39.0,22.0,-100.00,WNW,294,4.0,8.0,50,-99.99,,,-99.99,256.269989,,2013-02-14 19:41:00,
2013-02-14 12:52:00,39.0,22.0,-100.00,WNW,294,4.0,8.0,50,-99.99,,,-99.99,256.269989,,2013-02-14 19:52:00,
2013-02-14 13:01:00,39.0,22.0,-100.00,WNW,294,4.0,8.0,50,-99.99,,,-99.99,256.269989,,2013-02-14 20:01:00,
2013-02-14 13:11:00,39.0,22.0,-100.00,WNW,294,4.0,8.0,50,-99.99,,,-99.99,256.269989,,2013-02-14 20:11:00,
2013-02-14 13:41:00,40.0,22.0,-100.00,WNW,293,7.0,13.0,48,-99.99,,,0.00,307.869995,,2013-02-14 20:41:00,
2013-02-14 13:52:00,40.0,22.0,-100.00,WNW,293,7.0,13.0,48,-99.99,,,0.00,307.869995,,2013-02-14 20:52:00,
2013-02-14 14:02:00,40.0,22.0,-100.00,WNW,293,7.0,13.0,48,-99.99,,,0.00,307.869995,,2013-02-14 21:02:00,
2013-02-14 14:11:00,40.0,22.0,-100.00,WNW,293,7.0,13.0,48,-99.99,,,0.00,307.869995,,2013-02-14 21:11:00,
2013-02-14 14:41:00,41.0,23.0,-100.00,West,274,7.0,12.0,47,-99.99,,,0.00,526.590027,,2013-02-14 21:41:00,
2013-02-14 14:52:00,41.0,23.0,-100.00,West,274,7.0,12.0,47,-99.99,,,0.00,526.590027,,2013-02-14 21:52:00,
2013-02-14 15:02:00,41.0,23.0,-100.00,West,274,7.0,12.0,47,-99.99,,,0.00,526.590027,,2013-02-14 22:02:00,
2013-02-14 15:11:00,41.0,23.0,-100.00,West,274,7.0,12.0,47,-99.99,,,0.00,526.590027,,2013-02-14 22:11:00,
2013-02-14 15:41:00,41.0,20.0,-100.00,SSW,212,2.0,10.0,42,-99.99,,,0.00,231.160004,,2013-02-14 22:41:00,
2013-02-14 15:52:00,41.0,20.0,-100.00,SSW,212,2.0,10.0,42,-99.99,,,0.00,231.160004,,2013-02-14 22:52:00,
2013-02-14 16:01:00,41.0,20.0,-100.00,SSW,212,2.0,10.0,42,-99.99,,,0.00,231.160004,,2013-02-14 23:01:00,
2013-02-14 16:11:00,41.0,20.0,-100.00,SSW,212,2.0,10.0,42,-99.99,,,0.00,231.160004,,2013-02-14 23:11:00,
2013-02-14 16:41:00,40.0,21.0,-100.00,West,269,5.0,10.0,45,-99.99,,,0.00,132.259995,,2013-02-14 23:41:00,
2013-02-14 16:52:00,40.0,21.0,-100.00,West,269,5.0,10.0,45,-99.99,,,0.00,132.259995,,2013-02-14 23:52:00,
2013-02-14 17:01:00,40.0,21.0,-100.00,West,269,5.0,10.0,45,-99.99,,,0.00,132.259995,,2013-02-15 00:01:00,
2013-02-14 17:11:00,40.0,21.0,-100.00,West,269,5.0,10.0,45,-99.99,,,0.00,132.259995,,2013-02-15 00:11:00,
2013-02-14 17:41:00,40.0,21.0,-100.00,WSW,244,2.0,4.0,47,-99.99,,,0.00,51.250000,,2013-02-15 00:41:00,
2013-02-14 17:52:00,40.0,21.0,-100.00,WSW,244,2.0,4.0,47,-99.99,,,0.00,51.250000,,2013-02-15 00:52:00,
2013-02-14 18:01:00,40.0,21.0,-100.00,WSW,244,2.0,4.0,47,-99.99,,,0.00,51.250000,,2013-02-15 01:01:00,
2013-02-14 18:11:00,40.0,21.0,-100.00,WSW,244,2.0,4.0,47,-99.99,,,0.00,51.250000,,2013-02-15 01:11:00,
2013-02-14 19:31:00,38.0,23.0,-100.00,WSW,253,4.0,11.0,54,-99.99,,,0.00,0.000000,,2013-02-15 02:31:00,
2013-02-14 19:41:00,38.0,23.0,-100.00,WSW,253,4.0,11.0,54,-99.99,,,0.00,0.000000,,2013-02-15 02:41:00,
2013-02-14 19:52:00,38.0,23.0,-100.00,WSW,253,4.0,11.0,54,-99.99,,,0.00,0.000000,,2013-02-15 02:52:00,
2013-02-14 20:01:00,38.0,23.0,-100.00,WSW,253,4.0,11.0,54,-99.99,,,0.00,0.000000,,2013-02-15 03:01:00,
2013-02-14 20:11:00,38.0,23.0,-100.00,WSW,253,4.0,11.0,54,-99.99,,,0.00,0.000000,,2013-02-15 03:11:00,
2013-02-14 20:41:00,37.0,23.0,-100.00,SW,229,0.0,2.0,58,-99.99,,,0.00,0.000000,,2013-02-15 03:41:00,
2013-02-14 20:52:00,37.0,23.0,-100.00,SW,229,0.0,2.0,58,-99.99,,,0.00,0.000000,,2013-02-15 03:52:00,
2013-02-14 21:01:00,37.0,23.0,-100.00,SW,229,0.0,2.0,58,-99.99,,,0.00,0.000000,,2013-02-15 04:01:00,
2013-02-14 21:11:00,37.0,23.0,-100.00,SW,229,0.0,2.0,58,-99.99,,,0.00,0.000000,,2013-02-15 04:11:00,
2013-02-14 21:42:00,36.0,24.0,-100.00,SSW,195,1.0,6.0,60,-99.99,,,0.00,0.000000,,2013-02-15 04:42:00,
2013-02-14 21:52:00,36.0,24.0,-100.00,SSW,195,1.0,6.0,60,-99.99,,,0.00,0.000000,,2013-02-15 04:52:00,
2013-02-14 22:01:00,36.0,24.0,-100.00,SSW,195,1.0,6.0,60,-99.99,,,0.00,0.000000,,2013-02-15 05:01:00,
2013-02-14 22:11:00,36.0,24.0,-100.00,SSW,195,1.0,6.0,60,-99.99,,,0.00,0.000000,,2013-02-15 05:11:00,
2013-02-14 22:41:00,37.0,24.0,-100.00,West,261,4.0,9.0,59,-99.99,,,0.00,0.000000,,2013-02-15 05:41:00,
2013-02-14 22:52:00,37.0,24.0,-100.00,West,261,4.0,9.0,59,-99.99,,,0.00,0.000000,,2013-02-15 05:52:00,
2013-02-14 23:01:00,37.0,24.0,-100.00,West,261,4.0,9.0,59,-99.99,,,0.00,0.000000,,2013-02-15 06:01:00,
2013-02-14 23:11:00,37.0,24.0,-100.00,West,261,4.0,9.0,59,-99.99,,,0.00,0.000000,,2013-02-15 06:11:00,
2013-02-14 23:42:00,36.0,24.0,-100.00,SE,137,2.0,6.0,59,-99.99,,,0.00,0.000000,,2013-02-15 06:42:00,
2013-02-14 23:52:00,36.0,24.0,-100.00,SE,137,2.0,6.0,59,-99.99,,,0.00,0.000000,,2013-02-15 06:52:00,